sensor_id;sensor_type;location;lat;lon;timestamp;pressure;altitude;pressure_sealevel;temperature;humidity
82418;BME280;75985;53.734;10.260;2024-03-02T00:01:24;99996.13;;;7.28;88.34
82418;BME280;75985;53.734;10.260;2024-03-02T00:04:29;99997.36;;;7.26;88.39
82418;BME280;75985;53.734;10.260;2024-03-02T00:07:33;99994.33;;;7.25;88.48
82418;BME280;75985;53.734;10.260;2024-03-02T00:10:39;99995.63;;;7.25;88.50
82418;BME280;75985;53.734;10.260;2024-03-02T00:13:45;99989.95;;;7.23;88.53
82418;BME280;75985;53.734;10.260;2024-03-02T00:16:51;99983.52;;;7.23;88.58
82418;BME280;75985;53.734;10.260;2024-03-02T00:19:56;99980.89;;;7.21;88.64
82418;BME280;75985;53.734;10.260;2024-03-02T00:23:03;99980.89;;;7.21;88.73
82418;BME280;75985;53.734;10.260;2024-03-02T00:26:09;99973.45;;;7.17;88.78
82418;BME280;75985;53.734;10.260;2024-03-02T00:29:16;99972.94;;;7.15;88.88
82418;BME280;75985;53.734;10.260;2024-03-02T00:32:23;99972.80;;;7.10;88.99
82418;BME280;75985;53.734;10.260;2024-03-02T00:35:29;99972.23;;;7.06;89.20
82418;BME280;75985;53.734;10.260;2024-03-02T00:38:34;99969.83;;;6.99;89.54
82418;BME280;75985;53.734;10.260;2024-03-02T00:41:41;99970.42;;;6.92;89.95
82418;BME280;75985;53.734;10.260;2024-03-02T00:44:49;99970.16;;;6.84;90.40
82418;BME280;75985;53.734;10.260;2024-03-02T00:47:53;99962.14;;;6.76;90.88
82418;BME280;75985;53.734;10.260;2024-03-02T00:50:58;99955.08;;;6.71;91.38
82418;BME280;75985;53.734;10.260;2024-03-02T00:54:05;99955.79;;;6.66;91.79
82418;BME280;75985;53.734;10.260;2024-03-02T00:57:11;99949.73;;;6.64;92.15
82418;BME280;75985;53.734;10.260;2024-03-02T01:00:16;99951.72;;;6.60;92.49
82418;BME280;75985;53.734;10.260;2024-03-02T01:03:21;99950.77;;;6.58;92.82
82418;BME280;75985;53.734;10.260;2024-03-02T01:06:25;99952.43;;;6.56;93.11
82418;BME280;75985;53.734;10.260;2024-03-02T01:09:30;99956.17;;;6.53;93.49
82418;BME280;75985;53.734;10.260;2024-03-02T01:12:34;99956.11;;;6.51;93.76
82418;BME280;75985;53.734;10.260;2024-03-02T01:15:39;99964.59;;;6.49;94.02
82418;BME280;75985;53.734;10.260;2024-03-02T01:18:44;99964.92;;;6.47;94.30
82418;BME280;75985;53.734;10.260;2024-03-02T01:21:48;99961.44;;;6.45;94.52
82418;BME280;75985;53.734;10.260;2024-03-02T01:24:53;99967.38;;;6.43;94.79
82418;BME280;75985;53.734;10.260;2024-03-02T01:27:58;99960.42;;;6.41;95.09
82418;BME280;75985;53.734;10.260;2024-03-02T01:31:03;99961.25;;;6.40;95.35
82418;BME280;75985;53.734;10.260;2024-03-02T01:34:08;99966.33;;;6.38;95.61
82418;BME280;75985;53.734;10.260;2024-03-02T01:37:12;99958.98;;;6.36;95.89
82418;BME280;75985;53.734;10.260;2024-03-02T01:40:17;99954.58;;;6.34;96.12
82418;BME280;75985;53.734;10.260;2024-03-02T01:43:22;99948.13;;;6.32;96.35
82418;BME280;75985;53.734;10.260;2024-03-02T01:46:26;99949.28;;;6.29;96.55
82418;BME280;75985;53.734;10.260;2024-03-02T01:49:31;99947.05;;;6.27;96.76
82418;BME280;75985;53.734;10.260;2024-03-02T01:52:37;99937.14;;;6.25;96.92
82418;BME280;75985;53.734;10.260;2024-03-02T01:55:42;99936.55;;;6.21;97.05
82418;BME280;75985;53.734;10.260;2024-03-02T01:58:46;99934.71;;;6.18;97.23
82418;BME280;75985;53.734;10.260;2024-03-02T02:01:51;99931.56;;;6.14;97.39
82418;BME280;75985;53.734;10.260;2024-03-02T02:04:55;99926.33;;;6.11;97.54
82418;BME280;75985;53.734;10.260;2024-03-02T02:08:01;99925.77;;;6.08;97.72
82418;BME280;75985;53.734;10.260;2024-03-02T02:11:06;99928.71;;;6.06;97.90
82418;BME280;75985;53.734;10.260;2024-03-02T02:14:11;99936.27;;;6.03;98.02
82418;BME280;75985;53.734;10.260;2024-03-02T02:17:16;99937.09;;;6.02;98.21
82418;BME280;75985;53.734;10.260;2024-03-02T02:20:21;99930.14;;;5.99;98.36
82418;BME280;75985;53.734;10.260;2024-03-02T02:23:26;99930.08;;;5.98;98.50
82418;BME280;75985;53.734;10.260;2024-03-02T02:26:31;99933.44;;;5.97;98.61
82418;BME280;75985;53.734;10.260;2024-03-02T02:29:36;99937.72;;;5.96;98.69
82418;BME280;75985;53.734;10.260;2024-03-02T02:32:40;99931.30;;;5.96;98.75
82418;BME280;75985;53.734;10.260;2024-03-02T02:35:44;99930.34;;;5.94;98.78
82418;BME280;75985;53.734;10.260;2024-03-02T02:38:49;99926.49;;;5.94;98.84
82418;BME280;75985;53.734;10.260;2024-03-02T02:41:54;99924.75;;;5.93;98.90
82418;BME280;75985;53.734;10.260;2024-03-02T02:44:58;99933.28;;;5.92;98.95
82418;BME280;75985;53.734;10.260;2024-03-02T02:48:03;99931.05;;;5.90;98.99
82418;BME280;75985;53.734;10.260;2024-03-02T02:51:08;99923.20;;;5.87;99.02
82418;BME280;75985;53.734;10.260;2024-03-02T02:54:13;99927.89;;;5.86;99.09
82418;BME280;75985;53.734;10.260;2024-03-02T02:57:17;99926.53;;;5.84;99.18
82418;BME280;75985;53.734;10.260;2024-03-02T03:00:22;99922.16;;;5.82;99.28
82418;BME280;75985;53.734;10.260;2024-03-02T03:03:26;99916.10;;;5.79;99.44
82418;BME280;75985;53.734;10.260;2024-03-02T03:06:31;99910.02;;;5.77;99.55
82418;BME280;75985;53.734;10.260;2024-03-02T03:09:37;99915.48;;;5.75;99.66
82418;BME280;75985;53.734;10.260;2024-03-02T03:12:45;99909.03;;;5.74;99.73
82418;BME280;75985;53.734;10.260;2024-03-02T03:15:50;99906.40;;;5.72;99.81
82418;BME280;75985;53.734;10.260;2024-03-02T03:18:54;99912.75;;;5.71;99.88
82418;BME280;75985;53.734;10.260;2024-03-02T03:21:59;99910.19;;;5.71;99.95
82418;BME280;75985;53.734;10.260;2024-03-02T03:25:04;99903.70;;;5.69;100.00
82418;BME280;75985;53.734;10.260;2024-03-02T03:28:08;99910.98;;;5.70;100.00
82418;BME280;75985;53.734;10.260;2024-03-02T03:31:16;99913.08;;;5.69;100.00
82418;BME280;75985;53.734;10.260;2024-03-02T03:34:20;99907.95;;;5.69;100.00
82418;BME280;75985;53.734;10.260;2024-03-02T03:37:25;99904.09;;;5.69;100.00
82418;BME280;75985;53.734;10.260;2024-03-02T03:40:31;99907.09;;;5.68;100.00
82418;BME280;75985;53.734;10.260;2024-03-02T03:43:36;99914.83;;;5.70;100.00
82418;BME280;75985;53.734;10.260;2024-03-02T03:46:41;99913.52;;;5.68;100.00
82418;BME280;75985;53.734;10.260;2024-03-02T03:49:45;99914.80;;;5.68;100.00
82418;BME280;75985;53.734;10.260;2024-03-02T03:52:50;99916.48;;;5.68;100.00
82418;BME280;75985;53.734;10.260;2024-03-02T03:55:55;99917.76;;;5.68;100.00
82418;BME280;75985;53.734;10.260;2024-03-02T03:58:59;99916.02;;;5.66;100.00
82418;BME280;75985;53.734;10.260;2024-03-02T04:02:04;99916.94;;;5.69;100.00
82418;BME280;75985;53.734;10.260;2024-03-02T04:05:09;99919.97;;;5.70;100.00
82418;BME280;75985;53.734;10.260;2024-03-02T04:08:14;99915.26;;;5.69;100.00
82418;BME280;75985;53.734;10.260;2024-03-02T04:11:18;99911.41;;;5.69;100.00
82418;BME280;75985;53.734;10.260;2024-03-02T04:14:23;99907.81;;;5.65;100.00
82418;BME280;75985;53.734;10.260;2024-03-02T04:17:27;99907.78;;;5.64;100.00
82418;BME280;75985;53.734;10.260;2024-03-02T04:20:33;99909.86;;;5.63;100.00
82418;BME280;75985;53.734;10.260;2024-03-02T04:23:38;99906.77;;;5.60;100.00
82418;BME280;75985;53.734;10.260;2024-03-02T04:26:42;99910.16;;;5.59;100.00
82418;BME280;75985;53.734;10.260;2024-03-02T04:29:47;99906.70;;;5.59;100.00
82418;BME280;75985;53.734;10.260;2024-03-02T04:32:52;99902.45;;;5.59;100.00
82418;BME280;75985;53.734;10.260;2024-03-02T04:35:56;99902.03;;;5.60;100.00
82418;BME280;75985;53.734;10.260;2024-03-02T04:39:01;99893.93;;;5.60;100.00
82418;BME280;75985;53.734;10.260;2024-03-02T04:42:05;99893.93;;;5.60;100.00
82418;BME280;75985;53.734;10.260;2024-03-02T04:45:09;99895.67;;;5.61;100.00
82418;BME280;75985;53.734;10.260;2024-03-02T04:48:14;99897.78;;;5.60;100.00
82418;BME280;75985;53.734;10.260;2024-03-02T04:51:19;99899.46;;;5.60;100.00
82418;BME280;75985;53.734;10.260;2024-03-02T04:54:23;99890.97;;;5.61;100.00
82418;BME280;75985;53.734;10.260;2024-03-02T04:57:28;99894.81;;;5.61;100.00
82418;BME280;75985;53.734;10.260;2024-03-02T05:00:33;99898.24;;;5.61;100.00
82418;BME280;75985;53.734;10.260;2024-03-02T05:03:38;99900.02;;;5.62;100.00
82418;BME280;75985;53.734;10.260;2024-03-02T05:06:43;99902.59;;;5.62;100.00
82418;BME280;75985;53.734;10.260;2024-03-02T05:09:47;99909.47;;;5.63;100.00
82418;BME280;75985;53.734;10.260;2024-03-02T05:12:52;99907.72;;;5.62;100.00
82418;BME280;75985;53.734;10.260;2024-03-02T05:16:00;99911.14;;;5.63;100.00
82418;BME280;75985;53.734;10.260;2024-03-02T05:19:04;99915.42;;;5.62;100.00
82418;BME280;75985;53.734;10.260;2024-03-02T05:22:11;99914.14;;;5.62;100.00
82418;BME280;75985;53.734;10.260;2024-03-02T05:25:15;99915.42;;;5.62;100.00
82418;BME280;75985;53.734;10.260;2024-03-02T05:28:20;99917.04;;;5.60;100.00
82418;BME280;75985;53.734;10.260;2024-03-02T05:31:24;99913.58;;;5.60;100.00
82418;BME280;75985;53.734;10.260;2024-03-02T05:34:29;99916.97;;;5.59;100.00
82418;BME280;75985;53.734;10.260;2024-03-02T05:37:34;99910.55;;;5.59;100.00
82418;BME280;75985;53.734;10.260;2024-03-02T05:40:38;99914.83;;;5.58;100.00
82418;BME280;75985;53.734;10.260;2024-03-02T05:43:43;99909.20;;;5.57;100.00
82418;BME280;75985;53.734;10.260;2024-03-02T05:46:47;99913.88;;;5.56;100.00
82418;BME280;75985;53.734;10.260;2024-03-02T05:49:52;99907.39;;;5.55;100.00
82418;BME280;75985;53.734;10.260;2024-03-02T05:52:56;99910.36;;;5.54;100.00
82418;BME280;75985;53.734;10.260;2024-03-02T05:56:02;99910.36;;;5.54;99.99
82418;BME280;75985;53.734;10.260;2024-03-02T05:59:07;99906.05;;;5.53;99.97
82418;BME280;75985;53.734;10.260;2024-03-02T06:02:19;99906.94;;;5.53;99.94
82418;BME280;75985;53.734;10.260;2024-03-02T06:05:24;99912.14;;;5.55;99.94
82418;BME280;75985;53.734;10.260;2024-03-02T06:08:29;99917.27;;;5.55;99.94
82418;BME280;75985;53.734;10.260;2024-03-02T06:11:34;99922.41;;;5.55;99.92
82418;BME280;75985;53.734;10.260;2024-03-02T06:14:39;99933.96;;;5.55;99.94
82418;BME280;75985;53.734;10.260;2024-03-02T06:17:44;99932.67;;;5.55;99.97
82418;BME280;75985;53.734;10.260;2024-03-02T06:20:48;99930.90;;;5.54;99.92
82418;BME280;75985;53.734;10.260;2024-03-02T06:23:53;99927.02;;;5.52;99.85
82418;BME280;75985;53.734;10.260;2024-03-02T06:26:58;99923.95;;;5.51;99.76
82418;BME280;75985;53.734;10.260;2024-03-02T06:30:02;99919.70;;;5.52;99.73
82418;BME280;75985;53.734;10.260;2024-03-02T06:33:07;99920.98;;;5.52;99.65
82418;BME280;75985;53.734;10.260;2024-03-02T06:36:12;99924.37;;;5.51;99.55
82418;BME280;75985;53.734;10.260;2024-03-02T06:39:16;99932.15;;;5.52;99.51
82418;BME280;75985;53.734;10.260;2024-03-02T06:42:20;99933.89;;;5.53;99.45
82418;BME280;75985;53.734;10.260;2024-03-02T06:45:25;99934.29;;;5.53;99.48
82418;BME280;75985;53.734;10.260;2024-03-02T06:48:30;99935.58;;;5.53;99.48
82418;BME280;75985;53.734;10.260;2024-03-02T06:51:34;99929.16;;;5.53;99.49
82418;BME280;75985;53.734;10.260;2024-03-02T06:54:39;99936.53;;;5.55;99.44
82418;BME280;75985;53.734;10.260;2024-03-02T06:57:44;99945.64;;;5.58;99.43
82418;BME280;75985;53.734;10.260;2024-03-02T07:00:48;99939.33;;;5.61;99.38
82418;BME280;75985;53.734;10.260;2024-03-02T07:03:53;99948.91;;;5.65;99.32
82418;BME280;75985;53.734;10.260;2024-03-02T07:06:57;99948.28;;;5.71;99.32
82418;BME280;75985;53.734;10.260;2024-03-02T07:10:02;99944.56;;;5.74;99.30
82418;BME280;75985;53.734;10.260;2024-03-02T07:13:07;99942.58;;;5.78;99.21
82418;BME280;75985;53.734;10.260;2024-03-02T07:16:12;99940.14;;;5.82;99.08
82418;BME280;75985;53.734;10.260;2024-03-02T07:19:27;99945.87;;;5.86;98.91
82418;BME280;75985;53.734;10.260;2024-03-02T07:22:32;99945.11;;;5.88;98.71
82418;BME280;75985;53.734;10.260;2024-03-02T07:25:36;99940.98;;;5.92;98.52
82418;BME280;75985;53.734;10.260;2024-03-02T07:28:42;99937.20;;;5.94;98.33
82418;BME280;75985;53.734;10.260;2024-03-02T07:31:47;99944.60;;;5.97;98.16
82418;BME280;75985;53.734;10.260;2024-03-02T07:34:51;99954.19;;;6.01;98.00
82418;BME280;75985;53.734;10.260;2024-03-02T07:37:56;99953.95;;;6.05;97.76
82418;BME280;75985;53.734;10.260;2024-03-02T07:41:00;99954.53;;;6.09;97.49
82418;BME280;75985;53.734;10.260;2024-03-02T07:44:06;99949.16;;;6.14;97.26
82418;BME280;75985;53.734;10.260;2024-03-02T07:47:10;99944.20;;;6.19;96.96
82418;BME280;75985;53.734;10.260;2024-03-02T07:50:15;99948.91;;;6.20;96.61
82418;BME280;75985;53.734;10.260;2024-03-02T07:53:19;99969.14;;;6.22;96.32
82418;BME280;75985;53.734;10.260;2024-03-02T07:56:24;99975.39;;;6.28;96.18
82418;BME280;75985;53.734;10.260;2024-03-02T07:59:29;99965.50;;;6.39;96.03
82418;BME280;75985;53.734;10.260;2024-03-02T08:02:33;99977.91;;;6.50;95.80
82418;BME280;75985;53.734;10.260;2024-03-02T08:05:39;99977.38;;;6.59;95.52
82418;BME280;75985;53.734;10.260;2024-03-02T08:08:43;99987.14;;;6.67;95.26
82418;BME280;75985;53.734;10.260;2024-03-02T08:11:48;99984.02;;;6.76;94.89
82418;BME280;75985;53.734;10.260;2024-03-02T08:14:53;99977.64;;;6.78;94.42
82418;BME280;75985;53.734;10.260;2024-03-02T08:17:57;99978.14;;;6.92;93.92
82418;BME280;75985;53.734;10.260;2024-03-02T08:21:02;99982.16;;;7.08;93.38
82418;BME280;75985;53.734;10.260;2024-03-02T08:24:07;99978.55;;;7.27;92.76
82418;BME280;75985;53.734;10.260;2024-03-02T08:27:11;99982.67;;;7.48;91.59
82418;BME280;75985;53.734;10.260;2024-03-02T08:30:16;99989.62;;;7.77;90.29
82418;BME280;75985;53.734;10.260;2024-03-02T08:33:21;99986.19;;;8.04;88.81
82418;BME280;75985;53.734;10.260;2024-03-02T08:36:25;100000.14;;;8.38;86.91
82418;BME280;75985;53.734;10.260;2024-03-02T08:39:30;100000.94;;;8.65;85.56
82418;BME280;75985;53.734;10.260;2024-03-02T08:42:35;99986.70;;;8.78;84.07
82418;BME280;75985;53.734;10.260;2024-03-02T08:45:40;99997.06;;;8.95;83.29
82418;BME280;75985;53.734;10.260;2024-03-02T08:48:44;100000.13;;;9.12;82.46
82418;BME280;75985;53.734;10.260;2024-03-02T08:51:49;99995.23;;;9.22;81.53
82418;BME280;75985;53.734;10.260;2024-03-02T08:54:55;99996.39;;;9.33;80.97
82418;BME280;75985;53.734;10.260;2024-03-02T08:58:00;100006.42;;;9.55;80.41
82418;BME280;75985;53.734;10.260;2024-03-02T09:01:04;100011.80;;;9.80;79.58
82418;BME280;75985;53.734;10.260;2024-03-02T09:04:11;100007.56;;;10.01;78.06
82418;BME280;75985;53.734;10.260;2024-03-02T09:07:15;100002.67;;;10.14;76.87
82418;BME280;75985;53.734;10.260;2024-03-02T09:10:20;100003.80;;;10.25;76.60
82418;BME280;75985;53.734;10.260;2024-03-02T09:13:24;100008.80;;;10.37;75.97
82418;BME280;75985;53.734;10.260;2024-03-02T09:16:29;100007.11;;;10.57;75.61
82418;BME280;75985;53.734;10.260;2024-03-02T09:19:34;100008.47;;;10.80;74.78
82418;BME280;75985;53.734;10.260;2024-03-02T09:22:39;100005.47;;;11.03;74.13
82418;BME280;75985;53.734;10.260;2024-03-02T09:25:44;100007.14;;;11.22;73.42
82418;BME280;75985;53.734;10.260;2024-03-02T09:28:49;100001.73;;;11.35;72.54
82418;BME280;75985;53.734;10.260;2024-03-02T09:31:54;100008.88;;;11.47;72.04
82418;BME280;75985;53.734;10.260;2024-03-02T09:34:59;100009.79;;;11.49;70.85
82418;BME280;75985;53.734;10.260;2024-03-02T09:38:04;100016.20;;;11.46;70.71
82418;BME280;75985;53.734;10.260;2024-03-02T09:41:08;100014.50;;;11.48;70.66
82418;BME280;75985;53.734;10.260;2024-03-02T09:44:13;100013.33;;;11.54;70.38
82418;BME280;75985;53.734;10.260;2024-03-02T09:47:17;100018.51;;;11.54;69.97
82418;BME280;75985;53.734;10.260;2024-03-02T09:50:22;100012.88;;;11.53;69.42
82418;BME280;75985;53.734;10.260;2024-03-02T09:53:29;100012.97;;;11.60;69.25
82418;BME280;75985;53.734;10.260;2024-03-02T09:56:34;100009.94;;;11.59;69.26
82418;BME280;75985;53.734;10.260;2024-03-02T09:59:39;100010.83;;;11.59;69.11
82418;BME280;75985;53.734;10.260;2024-03-02T10:02:44;100008.70;;;11.62;69.07
82418;BME280;75985;53.734;10.260;2024-03-02T10:05:50;100014.39;;;11.66;68.94
82418;BME280;75985;53.734;10.260;2024-03-02T10:08:55;100015.75;;;11.69;68.69
82418;BME280;75985;53.734;10.260;2024-03-02T10:12:07;100016.27;;;11.76;68.65
82418;BME280;75985;53.734;10.260;2024-03-02T10:15:12;100016.50;;;11.89;68.93
82418;BME280;75985;53.734;10.260;2024-03-02T10:18:18;100020.15;;;12.00;68.50
82418;BME280;75985;53.734;10.260;2024-03-02T10:21:24;100013.44;;;12.12;68.20
82418;BME280;75985;53.734;10.260;2024-03-02T10:24:37;100012.22;;;12.18;67.54
82418;BME280;75985;53.734;10.260;2024-03-02T10:27:41;100012.66;;;12.19;66.83
82418;BME280;75985;53.734;10.260;2024-03-02T10:30:48;100014.11;;;12.28;66.66
82418;BME280;75985;53.734;10.260;2024-03-02T10:33:55;100005.95;;;12.33;64.92
82418;BME280;75985;53.734;10.260;2024-03-02T10:37:01;100005.63;;;12.39;64.19
82418;BME280;75985;53.734;10.260;2024-03-02T10:40:06;100004.52;;;12.53;64.40
82418;BME280;75985;53.734;10.260;2024-03-02T10:43:12;100005.00;;;12.57;63.36
82418;BME280;75985;53.734;10.260;2024-03-02T10:46:19;100008.14;;;12.67;63.43
82418;BME280;75985;53.734;10.260;2024-03-02T10:49:25;100015.28;;;12.82;63.07
82418;BME280;75985;53.734;10.260;2024-03-02T10:52:31;100017.54;;;12.91;62.27
82418;BME280;75985;53.734;10.260;2024-03-02T10:55:35;100016.33;;;12.97;62.22
82418;BME280;75985;53.734;10.260;2024-03-02T10:58:40;100013.34;;;13.02;61.42
82418;BME280;75985;53.734;10.260;2024-03-02T11:01:46;100015.98;;;13.05;61.33
82418;BME280;75985;53.734;10.260;2024-03-02T11:04:54;100018.68;;;13.15;61.35
82418;BME280;75985;53.734;10.260;2024-03-02T11:08:12;100014.52;;;13.29;61.00
82418;BME280;75985;53.734;10.260;2024-03-02T11:11:21;100021.88;;;13.31;61.15
82418;BME280;75985;53.734;10.260;2024-03-02T11:14:25;100027.10;;;13.33;61.09
82418;BME280;75985;53.734;10.260;2024-03-02T11:17:30;100024.64;;;13.44;61.18
82418;BME280;75985;53.734;10.260;2024-03-02T11:20:39;100035.56;;;13.49;60.85
82418;BME280;75985;53.734;10.260;2024-03-02T11:23:44;100033.29;;;13.44;60.78
82418;BME280;75985;53.734;10.260;2024-03-02T11:26:49;100036.70;;;13.39;60.86
82418;BME280;75985;53.734;10.260;2024-03-02T11:29:55;100031.45;;;13.32;60.63
82418;BME280;75985;53.734;10.260;2024-03-02T11:33:12;100031.77;;;13.24;60.42
82418;BME280;75985;53.734;10.260;2024-03-02T11:36:11;100032.59;;;13.20;60.87
82418;BME280;75985;53.734;10.260;2024-03-02T11:39:16;100031.95;;;13.38;61.81
82418;BME280;75985;53.734;10.260;2024-03-02T11:42:20;100036.55;;;13.64;60.18
82418;BME280;75985;53.734;10.260;2024-03-02T11:45:31;100030.20;;;13.81;60.49
82418;BME280;75985;53.734;10.260;2024-03-02T11:48:31;100037.27;;;13.98;59.56
82418;BME280;75985;53.734;10.260;2024-03-02T11:51:36;100031.63;;;13.97;58.66
82418;BME280;75985;53.734;10.260;2024-03-02T11:54:43;100035.97;;;13.98;58.33
82418;BME280;75985;53.734;10.260;2024-03-02T11:57:53;100031.12;;;13.88;58.52
82418;BME280;75985;53.734;10.260;2024-03-02T12:00:57;100027.08;;;13.72;58.66
82418;BME280;75985;53.734;10.260;2024-03-02T12:04:02;100027.50;;;13.69;58.88
82418;BME280;75985;53.734;10.260;2024-03-02T12:07:06;100030.05;;;13.64;59.19
82418;BME280;75985;53.734;10.260;2024-03-02T12:10:12;100037.00;;;13.64;59.07
82418;BME280;75985;53.734;10.260;2024-03-02T12:13:16;100034.44;;;13.70;58.08
82418;BME280;75985;53.734;10.260;2024-03-02T12:16:25;100030.49;;;13.64;58.79
82418;BME280;75985;53.734;10.260;2024-03-02T12:19:30;100036.50;;;13.58;58.95
82418;BME280;75985;53.734;10.260;2024-03-02T12:22:34;100037.56;;;13.37;59.13
82418;BME280;75985;53.734;10.260;2024-03-02T12:25:39;100034.38;;;13.22;59.81
82418;BME280;75985;53.734;10.260;2024-03-02T12:28:44;100032.93;;;13.11;60.27
82418;BME280;75985;53.734;10.260;2024-03-02T12:31:49;100032.84;;;13.02;60.80
82418;BME280;75985;53.734;10.260;2024-03-02T12:34:55;100033.56;;;12.92;60.98
82418;BME280;75985;53.734;10.260;2024-03-02T12:38:00;100035.12;;;12.79;61.01
82418;BME280;75985;53.734;10.260;2024-03-02T12:41:04;100028.48;;;12.66;61.20
82418;BME280;75985;53.734;10.260;2024-03-02T12:44:09;100027.13;;;12.63;61.90
82418;BME280;75985;53.734;10.260;2024-03-02T12:47:13;100016.70;;;12.58;62.02
82418;BME280;75985;53.734;10.260;2024-03-02T12:50:18;100022.77;;;12.60;62.05
82418;BME280;75985;53.734;10.260;2024-03-02T12:53:23;100022.39;;;12.63;62.35
82418;BME280;75985;53.734;10.260;2024-03-02T12:56:28;100021.62;;;12.70;62.53
82418;BME280;75985;53.734;10.260;2024-03-02T12:59:32;100022.56;;;12.77;62.49
82418;BME280;75985;53.734;10.260;2024-03-02T13:02:40;100016.16;;;12.84;62.39
82418;BME280;75985;53.734;10.260;2024-03-02T13:05:49;100021.00;;;12.90;62.13
82418;BME280;75985;53.734;10.260;2024-03-02T13:08:51;100021.10;;;12.99;62.34
82418;BME280;75985;53.734;10.260;2024-03-02T13:11:55;100019.05;;;13.08;62.02
82418;BME280;75985;53.734;10.260;2024-03-02T13:15:00;100009.13;;;13.12;61.70
82418;BME280;75985;53.734;10.260;2024-03-02T13:18:07;100014.39;;;13.17;61.52
82418;BME280;75985;53.734;10.260;2024-03-02T13:21:12;100013.14;;;13.23;61.43
82418;BME280;75985;53.734;10.260;2024-03-02T13:24:17;100015.81;;;13.29;61.21
82418;BME280;75985;53.734;10.260;2024-03-02T13:27:23;100009.73;;;13.29;60.90
82418;BME280;75985;53.734;10.260;2024-03-02T13:30:27;100008.04;;;13.31;60.73
82418;BME280;75985;53.734;10.260;2024-03-02T13:33:32;100016.68;;;13.28;60.29
82418;BME280;75985;53.734;10.260;2024-03-02T13:36:37;100017.47;;;13.21;60.63
82418;BME280;75985;53.734;10.260;2024-03-02T13:39:42;100014.37;;;13.15;60.84
82418;BME280;75985;53.734;10.260;2024-03-02T13:42:47;100000.41;;;13.08;60.86
82418;BME280;75985;53.734;10.260;2024-03-02T13:45:51;100009.97;;;13.09;60.87
82418;BME280;75985;53.734;10.260;2024-03-02T13:48:57;100013.81;;;13.05;61.05
82418;BME280;75985;53.734;10.260;2024-03-02T13:52:03;99998.16;;;13.00;61.01
82418;BME280;75985;53.734;10.260;2024-03-02T13:55:09;100000.73;;;12.98;60.96
82418;BME280;75985;53.734;10.260;2024-03-02T13:58:14;99992.44;;;12.93;60.97
82418;BME280;75985;53.734;10.260;2024-03-02T14:01:18;100002.05;;;12.97;60.99
82418;BME280;75985;53.734;10.260;2024-03-02T14:04:23;100000.36;;;13.02;60.69
82418;BME280;75985;53.734;10.260;2024-03-02T14:07:27;100000.84;;;13.06;60.66
82418;BME280;75985;53.734;10.260;2024-03-02T14:10:32;100003.44;;;13.06;60.33
82418;BME280;75985;53.734;10.260;2024-03-02T14:13:36;100003.83;;;13.04;60.14
82418;BME280;75985;53.734;10.260;2024-03-02T14:16:41;100000.75;;;13.00;59.99
82418;BME280;75985;53.734;10.260;2024-03-02T14:19:46;99999.41;;;12.94;59.87
82418;BME280;75985;53.734;10.260;2024-03-02T14:22:51;99998.56;;;12.96;60.08
82418;BME280;75985;53.734;10.260;2024-03-02T14:25:56;100000.75;;;13.00;59.95
82418;BME280;75985;53.734;10.260;2024-03-02T14:29:03;99999.50;;;13.03;59.66
82418;BME280;75985;53.734;10.260;2024-03-02T14:32:07;99995.14;;;13.01;59.92
82418;BME280;75985;53.734;10.260;2024-03-02T14:35:11;99999.92;;;13.01;60.12
82418;BME280;75985;53.734;10.260;2024-03-02T14:38:16;99995.58;;;13.02;60.60
82418;BME280;75985;53.734;10.260;2024-03-02T14:41:20;99997.34;;;13.03;61.02
82418;BME280;75985;53.734;10.260;2024-03-02T14:44:26;99994.30;;;13.03;61.29
82418;BME280;75985;53.734;10.260;2024-03-02T14:47:32;99994.73;;;13.04;61.60
82418;BME280;75985;53.734;10.260;2024-03-02T14:50:38;99989.97;;;13.02;61.74
82418;BME280;75985;53.734;10.260;2024-03-02T14:53:43;99981.76;;;13.03;61.94
82418;BME280;75985;53.734;10.260;2024-03-02T14:56:47;99984.81;;;13.05;61.64
82418;BME280;75985;53.734;10.260;2024-03-02T14:59:52;99983.09;;;13.07;61.71
82418;BME280;75985;53.734;10.260;2024-03-02T15:02:58;99990.96;;;13.14;61.69
82418;BME280;75985;53.734;10.260;2024-03-02T15:06:02;99993.16;;;13.17;61.38
82418;BME280;75985;53.734;10.260;2024-03-02T15:09:07;99988.84;;;13.18;60.89
82418;BME280;75985;53.734;10.260;2024-03-02T15:12:12;99990.58;;;13.19;60.62
82418;BME280;75985;53.734;10.260;2024-03-02T15:15:17;99988.86;;;13.19;60.38
82418;BME280;75985;53.734;10.260;2024-03-02T15:18:21;99993.63;;;13.21;59.88
82418;BME280;75985;53.734;10.260;2024-03-02T15:21:27;99987.94;;;13.16;60.00
82418;BME280;75985;53.734;10.260;2024-03-02T15:24:31;99984.45;;;13.12;60.01
82418;BME280;75985;53.734;10.260;2024-03-02T15:27:36;99988.28;;;13.07;60.01
82418;BME280;75985;53.734;10.260;2024-03-02T15:30:40;99986.03;;;12.99;60.17
82418;BME280;75985;53.734;10.260;2024-03-02T15:33:45;99988.55;;;12.93;60.27
82418;BME280;75985;53.734;10.260;2024-03-02T15:36:49;99987.58;;;12.84;60.34
82418;BME280;75985;53.734;10.260;2024-03-02T15:39:54;100000.91;;;12.76;60.49
82418;BME280;75985;53.734;10.260;2024-03-02T15:42:58;99989.02;;;12.60;60.55
82418;BME280;75985;53.734;10.260;2024-03-02T15:46:03;99992.33;;;12.47;60.97
82418;BME280;75985;53.734;10.260;2024-03-02T15:49:07;99998.20;;;12.35;61.43
82418;BME280;75985;53.734;10.260;2024-03-02T15:52:12;99998.89;;;12.21;61.88
82418;BME280;75985;53.734;10.260;2024-03-02T15:55:18;99998.27;;;12.10;62.04
82418;BME280;75985;53.734;10.260;2024-03-02T15:58:23;100001.50;;;11.96;62.37
82418;BME280;75985;53.734;10.260;2024-03-02T16:01:27;100003.04;;;11.85;62.84
82418;BME280;75985;53.734;10.260;2024-03-02T16:04:32;100004.52;;;11.70;63.07
82418;BME280;75985;53.734;10.260;2024-03-02T16:07:36;99999.54;;;11.57;63.39